Nisshoumaru — JD3093 — position and weather

sailwx.info

Track history (hours):
 
Tides and Currents Weather Stations Pressure Air Temp Water Temp Dewpoint Dewpoint Depression Visibility Wind Speed Wind Dir Waves Ship Positions

Nisshoumaru

Last reported at 2018-Jan-18 07:29 UTC. Time now 2018-Jan-18 07:54 UTC.
Position N 34°35' E 135°27'.

Length 76 m; draft 4 m.

Type: Cargo ship. MMSI: 431001549.

Date/timePositionNaut miles runAvg speedWind from/ knotsBaromVisibWave heightAir tempDewpointWater temp
2018-Jan-18 07:29N 34°35' E 135°27'1 3.0
2018-Jan-18 07:00N 34°35' E 135°25'3 6.8
2018-Jan-18 06:30N 34°39' E 135°24'3 5.8
2018-Jan-18 06:00N 34°39' E 135°28'0 0.0
2018-Jan-18 05:30N 34°39' E 135°28'0 0.0
2018-Jan-18 05:00N 34°39' E 135°28'0 0.0
2018-Jan-18 04:30N 34°39' E 135°28'0 0.0
2018-Jan-18 04:00N 34°39' E 135°28'0 0.0
2018-Jan-18 03:30N 34°39' E 135°28'0 0.0
2018-Jan-18 03:00N 34°39' E 135°28'0 0.0
2018-Jan-18 02:30N 34°39' E 135°28'0 0.0
2018-Jan-18 02:00N 34°39' E 135°28'0 0.0
2018-Jan-18 01:30N 34°39' E 135°28'0 0.0
2018-Jan-18 01:00N 34°39' E 135°28'0 0.0
2018-Jan-17 23:57N 34°39' E 135°28'  
2018-Jan-12 14:58N 34°33' E 138°22'511.9
2018-Jan-12 14:30N 34°34' E 138°29'611.4
2018-Jan-12 14:00N 34°34' E 138°36'612.1
2018-Jan-12 13:30N 34°34' E 138°43'611.9
2018-Jan-12 13:00N 34°35' E 138°50'510.7
2018-Jan-12 12:31N 34°36' E 138°56'611.4
2018-Jan-12 12:01N 34°39' E 139°02'611.1
2018-Jan-12 11:30N 34°42' E 139°08'610.8
2018-Jan-12 10:57N 34°46' E 139°14'410.1
2018-Jan-12 10:30N 34°48' E 139°18'910.7
2018-Jan-12 09:39N 34°50' E 139°29'412.4
2018-Jan-12 09:18N 34°49' E 139°35'1110.6
2018-Jan-12 08:18N 34°50' E 139°48'1112.3
2018-Jan-12 07:24N 34°55' E 139°60'612.6
2018-Jan-12 06:57N 34°58' E 140°05'  
Track history (hours):
 
Tides and Currents Weather Stations Pressure Air Temp Water Temp Dewpoint Dewpoint Depression Visibility Wind Speed Wind Dir Waves Ship Positions

Nisshoumaru

Last reported at 2018-Jan-18 07:29 UTC. Time now 2018-Jan-18 07:54 UTC.
Position N 34°35' E 135°27'.

Length 76 m; draft 4 m.

Type: Cargo ship. MMSI: 431001549.

Date/timePositionNaut miles runAvg speedWind from/ knotsBaromVisibWave heightAir tempDewpointWater temp
2018-Jan-18 07:29N 34°35' E 135°27'1 3.0
2018-Jan-18 07:00N 34°35' E 135°25'3 6.8
2018-Jan-18 06:30N 34°39' E 135°24'3 5.8
2018-Jan-18 06:00N 34°39' E 135°28'0 0.0
2018-Jan-18 05:30N 34°39' E 135°28'0 0.0
2018-Jan-18 05:00N 34°39' E 135°28'0 0.0
2018-Jan-18 04:30N 34°39' E 135°28'0 0.0
2018-Jan-18 04:00N 34°39' E 135°28'0 0.0
2018-Jan-18 03:30N 34°39' E 135°28'0 0.0
2018-Jan-18 03:00N 34°39' E 135°28'0 0.0
2018-Jan-18 02:30N 34°39' E 135°28'0 0.0
2018-Jan-18 02:00N 34°39' E 135°28'0 0.0
2018-Jan-18 01:30N 34°39' E 135°28'0 0.0
2018-Jan-18 01:00N 34°39' E 135°28'0 0.0
2018-Jan-17 23:57N 34°39' E 135°28'  
2018-Jan-12 14:58N 34°33' E 138°22'511.9
2018-Jan-12 14:30N 34°34' E 138°29'611.4
2018-Jan-12 14:00N 34°34' E 138°36'612.1
2018-Jan-12 13:30N 34°34' E 138°43'611.9
2018-Jan-12 13:00N 34°35' E 138°50'510.7
2018-Jan-12 12:31N 34°36' E 138°56'611.4
2018-Jan-12 12:01N 34°39' E 139°02'611.1
2018-Jan-12 11:30N 34°42' E 139°08'610.8
2018-Jan-12 10:57N 34°46' E 139°14'410.1
2018-Jan-12 10:30N 34°48' E 139°18'910.7
2018-Jan-12 09:39N 34°50' E 139°29'412.4
2018-Jan-12 09:18N 34°49' E 139°35'1110.6
2018-Jan-12 08:18N 34°50' E 139°48'1112.3
2018-Jan-12 07:24N 34°55' E 139°60'612.6
2018-Jan-12 06:57N 34°58' E 140°05'  

Dump ship's entire track history